createdAt,value
2022-11-05T00:01:51.812Z,85.79
2022-11-05T00:07:46.922Z,85.00
2022-11-05T00:10:38.252Z,85.15
2022-11-05T00:13:44.429Z,85.01
2022-11-05T00:16:44.983Z,85.04
2022-11-05T00:22:33.858Z,85.92
2022-11-05T00:25:28.583Z,85.96
2022-11-05T00:31:04.524Z,86.57
2022-11-05T00:36:47.815Z,85.22
2022-11-05T00:42:41.070Z,84.33
2022-11-05T00:45:29.975Z,84.27
2022-11-05T00:50:59.005Z,84.08
2022-11-05T00:59:17.680Z,84.60
2022-11-05T01:04:56.233Z,84.49
2022-11-05T01:07:44.748Z,84.00
2022-11-05T01:13:13.404Z,83.04
2022-11-05T01:16:12.455Z,83.73
2022-11-05T01:21:45.750Z,84.49
2022-11-05T01:27:17.670Z,84.98
2022-11-05T01:30:10.773Z,84.30
2022-11-05T01:35:39.753Z,84.27
2022-11-05T01:41:09.883Z,84.75
2022-11-05T01:49:37.693Z,84.03
2022-11-05T01:55:23.968Z,84.96
2022-11-05T02:01:03.050Z,86.44
2022-11-05T02:06:36.130Z,84.41
2022-11-05T02:09:27.665Z,84.90
2022-11-05T02:12:16.856Z,83.96
2022-11-05T02:17:59.498Z,85.46
2022-11-05T02:24:03.356Z,85.21
2022-11-05T02:27:04.447Z,85.24
2022-11-05T02:33:12.327Z,84.55
2022-11-05T02:38:49.992Z,84.72
2022-11-05T02:44:32.572Z,84.50
2022-11-05T02:50:10.649Z,85.02
2022-11-05T02:55:50.344Z,86.01
2022-11-05T03:01:20.197Z,86.34
2022-11-05T03:04:13.070Z,86.75
2022-11-05T03:10:32.917Z,87.34
2022-11-05T03:16:07.057Z,87.62
2022-11-05T03:22:09.838Z,87.98
2022-11-05T03:25:01.461Z,88.87
2022-11-05T03:30:44.018Z,88.92
2022-11-05T03:36:24.338Z,88.89
2022-11-05T03:42:08.086Z,87.83
2022-11-05T03:47:51.123Z,88.39
2022-11-05T03:53:34.374Z,88.44
2022-11-05T03:59:15.168Z,88.30
2022-11-05T04:05:03.432Z,87.67
2022-11-05T04:11:05.526Z,87.70
2022-11-05T04:13:53.962Z,87.00
2022-11-05T04:17:00.341Z,88.49
2022-11-05T04:20:11.888Z,89.52
2022-11-05T04:29:49.264Z,90.06
2022-11-05T04:35:26.738Z,91.83
2022-11-05T04:38:16.035Z,91.72
2022-11-05T04:43:58.008Z,93.06
2022-11-05T04:46:46.227Z,92.57
2022-11-05T04:49:34.611Z,92.42
2022-11-05T04:52:22.504Z,92.15
2022-11-05T04:55:13.282Z,92.75
2022-11-05T05:01:04.532Z,94.51
2022-11-05T05:06:39.801Z,95.46
2022-11-05T05:09:28.152Z,96.82
2022-11-05T05:12:17.275Z,96.68
2022-11-05T05:15:06.652Z,96.83
2022-11-05T05:17:59.713Z,97.44
2022-11-05T05:24:14.338Z,98.29
2022-11-05T05:29:43.681Z,97.92
2022-11-05T05:35:13.386Z,97.10
2022-11-05T05:38:02.542Z,98.35
2022-11-05T05:43:52.124Z,97.72
2022-11-05T05:49:30.220Z,98.64
2022-11-05T05:52:18.484Z,98.89
2022-11-05T05:57:57.204Z,99.77
2022-11-05T06:03:39.988Z,100.00
2022-11-05T06:13:22.877Z,100.00
2022-11-05T06:16:41.418Z,100.00
2022-11-05T06:19:49.763Z,100.00
2022-11-05T06:22:45.636Z,100.00
2022-11-05T06:25:44.724Z,100.00
2022-11-05T06:28:33.506Z,100.00
2022-11-05T06:31:24.759Z,100.00
2022-11-05T06:34:12.968Z,100.00
2022-11-05T06:39:46.489Z,100.00
2022-11-05T06:42:34.774Z,100.00
2022-11-05T06:45:23.201Z,100.00
2022-11-05T06:50:59.652Z,100.00
2022-11-05T06:53:47.850Z,100.00
2022-11-05T06:59:21.109Z,100.00
2022-11-05T07:10:54.492Z,100.00
2022-11-05T07:13:58.836Z,100.00
2022-11-05T07:22:21.924Z,100.00
2022-11-05T07:27:55.102Z,100.00
2022-11-05T07:33:32.313Z,100.00
2022-11-05T07:36:18.291Z,100.00
2022-11-05T07:39:07.575Z,100.00
2022-11-05T07:44:42.064Z,100.00
2022-11-05T07:50:13.587Z,100.00
2022-11-05T07:55:58.772Z,100.00
2022-11-05T08:01:28.189Z,100.00
2022-11-05T08:07:04.691Z,100.00
2022-11-05T08:09:53.714Z,100.00
2022-11-05T08:15:28.873Z,100.00
2022-11-05T08:18:18.342Z,100.00
2022-11-05T08:24:01.239Z,100.00
2022-11-05T08:29:33.721Z,100.00
2022-11-05T08:35:10.154Z,100.00
2022-11-05T08:40:40.095Z,100.00
2022-11-05T08:43:29.158Z,100.00
2022-11-05T08:49:08.470Z,100.00
2022-11-05T08:54:44.614Z,100.00
2022-11-05T09:00:21.336Z,100.00
2022-11-05T09:03:11.388Z,100.00
2022-11-05T09:05:59.968Z,100.00
2022-11-05T09:08:49.370Z,100.00
2022-11-05T09:14:18.517Z,100.00
2022-11-05T09:17:15.145Z,100.00
2022-11-05T09:22:46.222Z,100.00
2022-11-05T09:25:35.744Z,100.00
2022-11-05T09:31:21.358Z,100.00
2022-11-05T09:34:10.208Z,100.00
2022-11-05T09:37:03.321Z,100.00
2022-11-05T09:42:47.172Z,99.19
2022-11-05T09:48:29.100Z,98.18
2022-11-05T09:51:23.646Z,98.43
2022-11-05T09:56:56.198Z,100.00
2022-11-05T10:02:53.495Z,100.00
2022-11-05T10:05:43.304Z,100.00
2022-11-05T10:11:29.049Z,100.00
2022-11-05T10:14:20.880Z,100.00
2022-11-05T10:19:53.642Z,98.97
2022-11-05T10:25:25.623Z,98.51
2022-11-05T10:31:02.173Z,96.87
2022-11-05T10:36:38.970Z,95.04
2022-11-05T10:39:30.336Z,94.94
2022-11-05T10:42:33.796Z,95.91
2022-11-05T10:45:28.928Z,93.60
2022-11-05T10:48:44.289Z,92.97
2022-11-05T10:51:33.892Z,90.69
2022-11-05T10:54:25.351Z,89.57
2022-11-05T11:00:31.026Z,88.74
2022-11-05T11:03:42.415Z,90.12
2022-11-05T11:09:20.773Z,90.16
2022-11-05T11:15:04.645Z,88.13
2022-11-05T11:17:53.331Z,87.23
2022-11-05T11:20:45.026Z,86.51
2022-11-05T11:23:42.614Z,88.87
2022-11-05T11:29:34.866Z,87.47
2022-11-05T11:41:08.011Z,88.55
2022-11-05T11:46:41.643Z,88.81
2022-11-05T11:52:27.528Z,85.20
2022-11-05T12:01:01.875Z,83.82
2022-11-05T12:06:36.516Z,84.22
2022-11-05T12:12:15.443Z,84.45
2022-11-05T12:15:09.444Z,85.45
2022-11-05T12:18:02.398Z,86.08
2022-11-05T12:24:14.470Z,82.71
2022-11-05T12:29:58.865Z,81.27
2022-11-05T12:35:52.109Z,76.58
2022-11-05T12:53:14.543Z,82.76
2022-11-05T12:56:06.333Z,83.96
2022-11-05T12:58:58.236Z,82.69
2022-11-05T13:04:31.291Z,86.04
2022-11-05T13:10:04.682Z,84.06
2022-11-05T13:15:38.518Z,86.54
2022-11-05T13:21:12.280Z,85.79
2022-11-05T13:26:49.199Z,86.49
2022-11-05T13:32:28.735Z,88.75
2022-11-05T13:38:27.951Z,84.16
2022-11-05T13:44:48.861Z,85.13
2022-11-05T13:51:03.141Z,86.93
2022-11-05T13:54:56.288Z,88.68
2022-11-05T14:01:07.330Z,92.95
2022-11-05T14:07:07.988Z,93.21
2022-11-05T14:12:47.162Z,95.61
2022-11-05T14:18:37.141Z,94.10
2022-11-05T14:30:42.680Z,89.86
2022-11-05T14:52:56.350Z,95.19
2022-11-05T14:58:44.925Z,93.75
2022-11-05T15:05:17.129Z,94.65
2022-11-05T15:08:32.836Z,96.13
2022-11-05T15:11:24.522Z,92.03
2022-11-05T15:17:13.637Z,93.85
2022-11-05T15:20:15.146Z,94.36
2022-11-05T15:25:56.005Z,92.12
2022-11-05T15:31:39.955Z,95.10
2022-11-05T15:34:31.316Z,93.45
2022-11-05T15:37:24.909Z,91.91
2022-11-05T15:40:25.353Z,95.58
2022-11-05T15:46:18.552Z,96.05
2022-11-05T15:49:08.794Z,94.03
2022-11-05T15:51:57.814Z,93.62
2022-11-05T15:54:46.436Z,93.05
2022-11-05T15:57:40.076Z,93.52
2022-11-05T16:00:29.382Z,93.92
2022-11-05T16:03:22.436Z,95.11
2022-11-05T16:06:11.211Z,94.08
2022-11-05T16:08:59.031Z,94.94
2022-11-05T16:11:48.304Z,94.52
2022-11-05T16:17:24.764Z,95.39
2022-11-05T16:25:57.145Z,95.69
2022-11-05T16:31:52.427Z,96.46
2022-11-05T16:37:26.343Z,96.73
2022-11-05T16:40:17.823Z,96.41
2022-11-05T16:46:04.943Z,97.00
2022-11-05T16:51:43.781Z,96.26
2022-11-05T16:57:19.595Z,96.32
2022-11-05T17:00:27.217Z,96.53
2022-11-05T17:03:16.695Z,96.24
2022-11-05T17:06:05.368Z,97.03
2022-11-05T17:11:42.266Z,97.25
2022-11-05T17:17:23.557Z,96.99
2022-11-05T17:20:15.350Z,97.36
2022-11-05T17:25:50.433Z,97.75
2022-11-05T17:31:27.180Z,97.55
2022-11-05T17:37:04.445Z,98.49
2022-11-05T17:42:58.683Z,98.61
2022-11-05T17:45:49.866Z,98.72
2022-11-05T17:51:25.527Z,98.69
2022-11-05T17:57:00.326Z,98.67
2022-11-05T18:05:25.062Z,99.64
2022-11-05T18:08:13.902Z,99.41
2022-11-05T18:13:44.116Z,98.21
2022-11-05T18:19:20.140Z,98.56
2022-11-05T18:24:58.516Z,99.78
2022-11-05T18:30:41.612Z,100.00
2022-11-05T18:36:27.742Z,100.00
2022-11-05T18:39:15.955Z,100.00
2022-11-05T18:44:53.228Z,100.00
2022-11-05T18:50:30.324Z,100.00
2022-11-05T18:53:19.388Z,100.00
2022-11-05T18:59:35.199Z,100.00
2022-11-05T19:02:01.407Z,100.00
2022-11-05T19:07:33.525Z,100.00
2022-11-05T19:13:07.905Z,100.00
2022-11-05T19:15:57.562Z,100.00
2022-11-05T19:21:34.819Z,100.00
2022-11-05T19:27:07.774Z,100.00
2022-11-05T19:29:56.293Z,100.00
2022-11-05T19:35:33.698Z,100.00
2022-11-05T19:41:12.499Z,100.00
2022-11-05T19:46:44.857Z,100.00
2022-11-05T19:52:19.716Z,100.00
2022-11-05T19:55:12.269Z,100.00
2022-11-05T19:58:00.621Z,100.00
2022-11-05T20:06:38.765Z,100.00
2022-11-05T20:09:31.113Z,100.00
2022-11-05T20:12:19.485Z,100.00
2022-11-05T20:15:09.517Z,100.00
2022-11-05T20:17:58.189Z,100.00
2022-11-05T20:23:37.531Z,100.00
2022-11-05T20:26:42.992Z,100.00
2022-11-05T20:32:15.326Z,100.00
2022-11-05T20:37:54.149Z,100.00
2022-11-05T20:43:55.386Z,100.00
2022-11-05T20:49:33.512Z,100.00
2022-11-05T20:55:12.475Z,100.00
2022-11-05T21:00:58.286Z,100.00
2022-11-05T21:06:38.330Z,100.00
2022-11-05T21:09:27.272Z,100.00
2022-11-05T21:12:15.504Z,100.00
2022-11-05T21:15:07.054Z,100.00
2022-11-05T21:20:44.517Z,100.00
2022-11-05T21:23:32.608Z,100.00
2022-11-05T21:26:21.095Z,100.00
2022-11-05T21:34:40.454Z,100.00
2022-11-05T21:40:17.066Z,100.00
2022-11-05T21:43:06.476Z,100.00
2022-11-05T21:51:46.273Z,100.00
2022-11-05T21:57:45.880Z,100.00
2022-11-05T22:03:34.884Z,100.00
2022-11-05T22:09:21.005Z,100.00
2022-11-05T22:14:55.323Z,100.00
2022-11-05T22:20:46.020Z,100.00
2022-11-05T22:29:12.196Z,100.00
2022-11-05T22:32:01.264Z,100.00
2022-11-05T22:37:37.175Z,100.00
2022-11-05T22:40:27.101Z,100.00
2022-11-05T22:43:15.467Z,100.00
2022-11-05T22:48:52.547Z,100.00
2022-11-05T22:54:28.767Z,100.00
2022-11-05T23:00:04.029Z,100.00
2022-11-05T23:02:53.453Z,100.00
2022-11-05T23:05:41.886Z,100.00
2022-11-05T23:11:38.858Z,100.00
2022-11-05T23:17:36.275Z,100.00
2022-11-05T23:20:44.692Z,100.00
2022-11-05T23:39:13.207Z,100.00
2022-11-05T23:42:35.864Z,100.00
2022-11-05T23:45:47.652Z,100.00
2022-11-05T23:48:37.735Z,100.00
2022-11-05T23:54:24.369Z,100.00
2022-11-05T23:57:21.204Z,100.00
